createdAt,value
2022-09-26T00:00:35.890Z,3.43
2022-09-26T00:04:44.926Z,2.43
2022-09-26T00:08:55.986Z,4.07
2022-09-26T00:13:05.125Z,3.60
2022-09-26T00:17:14.148Z,4.47
2022-09-26T00:21:23.746Z,2.53
2022-09-26T00:25:34.244Z,2.73
2022-09-26T00:29:43.127Z,3.97
2022-09-26T00:33:52.265Z,4.33
2022-09-26T00:38:01.365Z,2.63
2022-09-26T00:42:15.845Z,3.67
2022-09-26T00:46:31.826Z,4.37
2022-09-26T00:50:43.724Z,2.40
2022-09-26T00:54:56.185Z,3.20
2022-09-26T00:59:14.065Z,4.10
2022-09-26T01:03:24.308Z,4.37
2022-09-26T01:07:34.945Z,3.53
2022-09-26T01:11:45.084Z,3.13
2022-09-26T01:15:55.646Z,5.33
2022-09-26T01:20:16.132Z,3.80
2022-09-26T01:24:44.508Z,3.93
2022-09-26T01:29:19.483Z,4.00
2022-09-26T01:33:58.946Z,3.17
2022-09-26T01:38:17.486Z,3.43
2022-09-26T01:42:36.317Z,4.47
2022-09-26T01:46:51.727Z,4.83
2022-09-26T01:51:08.148Z,3.60
2022-09-26T01:55:20.887Z,3.00
2022-09-26T01:59:35.686Z,4.87
2022-09-26T02:03:48.769Z,5.20
2022-09-26T02:08:04.345Z,3.37
2022-09-26T02:12:18.109Z,2.37
2022-09-26T02:16:31.990Z,3.90
2022-09-26T02:20:43.388Z,5.33
2022-09-26T02:24:55.147Z,2.40
2022-09-26T02:29:04.933Z,3.40
2022-09-26T02:33:14.493Z,3.77
2022-09-26T02:37:24.211Z,3.40
2022-09-26T02:41:44.946Z,2.33
2022-09-26T02:46:03.230Z,3.93
2022-09-26T02:50:25.708Z,3.33
2022-09-26T02:54:45.246Z,2.33
2022-09-26T02:59:02.287Z,4.13
2022-09-26T03:03:20.396Z,4.13
2022-09-26T03:07:35.067Z,3.73
2022-09-26T03:11:45.206Z,6.10
2022-09-26T03:15:58.005Z,2.87
2022-09-26T03:20:11.588Z,2.47
2022-09-26T03:24:20.911Z,3.47
2022-09-26T03:28:35.366Z,4.57
2022-09-26T03:32:48.267Z,4.37
2022-09-26T03:36:57.324Z,4.30
2022-09-26T03:41:07.625Z,4.27
2022-09-26T03:45:16.846Z,5.13
2022-09-26T03:49:27.528Z,4.17
2022-09-26T03:53:38.598Z,4.10
2022-09-26T03:57:47.825Z,3.03
2022-09-26T04:01:57.058Z,4.50
2022-09-26T04:06:09.206Z,2.13
2022-09-26T04:10:19.346Z,4.47
2022-09-26T04:14:29.086Z,4.33
2022-09-26T04:18:38.965Z,3.77
2022-09-26T04:22:49.826Z,3.57
2022-09-26T04:26:59.118Z,2.43
2022-09-26T04:31:10.959Z,3.20
2022-09-26T04:35:20.238Z,5.37
2022-09-26T04:39:31.166Z,6.90
2022-09-26T04:43:41.825Z,5.67
2022-09-26T04:47:50.986Z,4.53
2022-09-26T04:51:59.964Z,5.70
2022-09-26T04:56:13.305Z,3.20
2022-09-26T05:00:22.567Z,4.63
2022-09-26T05:04:34.225Z,2.63
2022-09-26T05:08:44.933Z,3.83
2022-09-26T05:12:55.824Z,3.37
2022-09-26T05:17:05.871Z,4.00
2022-09-26T05:21:15.186Z,5.60
2022-09-26T05:25:41.320Z,5.80
2022-09-26T05:29:52.586Z,3.00
2022-09-26T05:34:02.107Z,4.40
2022-09-26T05:38:11.525Z,5.77
2022-09-26T05:42:20.565Z,4.00
2022-09-26T05:46:32.488Z,5.97
2022-09-26T05:50:43.588Z,5.80
2022-09-26T05:54:53.006Z,4.47
2022-09-26T05:59:02.083Z,3.23
2022-09-26T06:03:12.926Z,6.33
2022-09-26T06:07:22.224Z,4.77
2022-09-26T06:11:32.085Z,6.70
2022-09-26T06:15:43.548Z,4.53
2022-09-26T06:19:55.130Z,4.93
2022-09-26T06:24:04.548Z,2.57
2022-09-26T06:28:13.725Z,4.23
2022-09-26T06:32:22.724Z,3.70
2022-09-26T06:36:33.198Z,5.03
2022-09-26T06:40:42.375Z,6.07
2022-09-26T06:44:52.547Z,5.07
2022-09-26T06:49:01.646Z,5.53
2022-09-26T06:53:13.187Z,3.60
2022-09-26T06:57:23.272Z,3.80
2022-09-26T07:01:32.922Z,3.57
2022-09-26T07:05:42.780Z,4.03
2022-09-26T07:10:04.761Z,4.03
2022-09-26T07:14:17.398Z,7.90
2022-09-26T07:18:26.932Z,7.87
2022-09-26T07:22:36.433Z,6.77
2022-09-26T07:26:47.753Z,5.97
2022-09-26T07:30:59.068Z,5.73
2022-09-26T07:35:08.754Z,3.87
2022-09-26T07:39:17.892Z,4.90
2022-09-26T07:43:53.567Z,4.33
2022-09-26T07:48:15.153Z,7.17
2022-09-26T07:52:24.612Z,6.13
2022-09-26T07:56:34.316Z,5.17
2022-09-26T08:00:46.034Z,5.27
2022-09-26T08:05:00.875Z,12.67
2022-09-26T08:09:10.413Z,6.53
2022-09-26T08:13:19.913Z,4.57
2022-09-26T08:17:34.493Z,5.03
2022-09-26T08:21:44.055Z,4.33
2022-09-26T08:25:53.672Z,7.07
2022-09-26T08:30:05.392Z,7.57
2022-09-26T08:34:19.229Z,2.97
2022-09-26T08:38:33.133Z,9.20
2022-09-26T08:42:53.992Z,6.03
2022-09-26T08:47:28.859Z,7.87
2022-09-26T08:51:43.314Z,8.03
2022-09-26T08:55:55.453Z,9.47
2022-09-26T09:00:19.359Z,4.97
2022-09-26T09:04:38.814Z,7.63
2022-09-26T09:08:52.673Z,11.93
2022-09-26T09:13:12.889Z,12.57
2022-09-26T09:17:29.992Z,8.87
2022-09-26T09:21:49.374Z,11.10
2022-09-26T09:30:50.702Z,11.30
2022-09-26T09:35:00.414Z,12.53
2022-09-26T09:39:13.754Z,10.07
2022-09-26T09:43:41.775Z,7.87
2022-09-26T09:47:50.852Z,7.97
2022-09-26T09:52:30.133Z,11.07
2022-09-26T09:56:52.313Z,11.33
2022-09-26T10:01:12.273Z,10.87
2022-09-26T10:05:30.234Z,12.57
2022-09-26T10:09:42.813Z,10.00
2022-09-26T10:13:56.493Z,8.63
2022-09-26T10:18:27.449Z,13.30
2022-09-26T10:23:06.353Z,7.63
2022-09-26T10:27:22.934Z,6.57
2022-09-26T10:31:42.369Z,5.63
2022-09-26T10:36:00.592Z,6.43
2022-09-26T10:40:42.869Z,10.10
2022-09-26T10:44:52.313Z,13.07
2022-09-26T10:49:04.518Z,13.43
2022-09-26T10:53:23.374Z,15.83
2022-09-26T10:57:45.734Z,12.80
2022-09-26T11:02:01.181Z,19.10
2022-09-26T11:06:25.732Z,16.30
2022-09-26T11:10:42.393Z,18.10
2022-09-26T11:14:57.313Z,15.93
2022-09-26T11:19:13.998Z,9.63
2022-09-26T11:23:37.154Z,11.67
2022-09-26T11:27:51.373Z,5.90
2022-09-26T11:32:00.645Z,6.40
2022-09-26T11:36:23.533Z,6.07
2022-09-26T11:41:01.561Z,7.17
2022-09-26T11:45:22.572Z,6.00
2022-09-26T11:49:49.354Z,4.33
2022-09-26T11:54:19.257Z,5.87
2022-09-26T11:58:38.954Z,6.43
2022-09-26T12:03:07.694Z,7.57
2022-09-26T12:07:23.035Z,7.70
2022-09-26T12:11:38.653Z,7.30
2022-09-26T12:15:56.634Z,5.97
2022-09-26T12:20:20.753Z,4.73
2022-09-26T12:24:36.132Z,4.77
2022-09-26T12:29:17.652Z,4.77
2022-09-26T12:33:47.694Z,5.87
2022-09-26T12:38:34.013Z,7.93
2022-09-26T12:43:18.052Z,6.53
2022-09-26T12:48:08.012Z,8.67
2022-09-26T12:52:29.291Z,7.40
2022-09-26T12:56:49.673Z,9.20
2022-09-26T13:01:21.421Z,9.53
2022-09-26T13:06:08.576Z,11.93
2022-09-26T13:10:51.932Z,9.87
2022-09-26T13:15:19.653Z,11.23
2022-09-26T13:19:36.173Z,10.77
2022-09-26T13:24:03.713Z,9.83
2022-09-26T13:28:20.894Z,8.67
2022-09-26T13:32:41.874Z,11.97
2022-09-26T13:36:52.934Z,10.93
2022-09-26T13:41:14.254Z,13.13
2022-09-26T13:45:32.954Z,10.73
2022-09-26T13:49:55.933Z,13.60
2022-09-26T13:54:22.814Z,13.87
2022-09-26T13:58:44.793Z,15.87
2022-09-26T14:03:28.356Z,10.53
2022-09-26T14:08:14.554Z,15.60
2022-09-26T14:12:35.734Z,16.40
2022-09-26T14:16:45.332Z,15.63
2022-09-26T14:21:33.901Z,16.17
2022-09-26T14:26:10.714Z,12.93
2022-09-26T14:30:30.814Z,16.70
2022-09-26T14:34:49.074Z,13.37
2022-09-26T14:39:02.074Z,14.53
2022-09-26T14:43:15.574Z,16.87
2022-09-26T14:47:32.257Z,12.63
2022-09-26T14:51:54.152Z,9.43
2022-09-26T14:56:06.953Z,12.20
2022-09-26T15:00:36.173Z,13.20
2022-09-26T15:04:49.172Z,13.87
2022-09-26T15:09:00.835Z,13.83
2022-09-26T15:13:25.934Z,15.30
2022-09-26T15:17:42.412Z,12.23
2022-09-26T15:22:01.815Z,15.23
2022-09-26T15:26:19.013Z,17.03
2022-09-26T15:30:37.702Z,10.93
2022-09-26T15:34:51.272Z,14.63
2022-09-26T15:39:08.716Z,12.70
2022-09-26T15:43:28.394Z,16.33
2022-09-26T15:47:43.437Z,17.10
2022-09-26T15:51:56.034Z,16.40
2022-09-26T15:56:11.354Z,12.90
2022-09-26T16:00:49.872Z,8.70
2022-09-26T16:09:37.521Z,11.83
2022-09-26T16:13:52.239Z,12.70
2022-09-26T16:18:02.614Z,10.13
2022-09-26T16:22:45.137Z,10.77
2022-09-26T16:26:56.274Z,11.10
2022-09-26T16:31:23.611Z,10.37
2022-09-26T16:35:34.795Z,10.60
2022-09-26T16:39:44.472Z,10.67
2022-09-26T16:44:07.890Z,9.97
2022-09-26T16:48:55.114Z,11.40
2022-09-26T16:53:07.114Z,11.37
2022-09-26T16:57:20.632Z,13.63
2022-09-26T17:01:47.281Z,11.57
2022-09-26T17:06:00.855Z,10.13
2022-09-26T17:10:15.473Z,11.23
2022-09-26T17:14:29.836Z,14.40
2022-09-26T17:18:43.692Z,11.80
2022-09-26T17:22:55.194Z,12.13
2022-09-26T17:27:07.775Z,12.23
2022-09-26T17:31:20.508Z,12.93
2022-09-26T17:35:36.395Z,15.60
2022-09-26T17:39:47.352Z,14.37
2022-09-26T17:44:00.517Z,11.30
2022-09-26T17:48:15.713Z,10.30
2022-09-26T17:52:29.334Z,9.97
2022-09-26T17:56:40.013Z,13.57
2022-09-26T18:00:51.855Z,16.10
2022-09-26T18:05:04.834Z,11.23
2022-09-26T18:09:17.092Z,15.60
2022-09-26T18:13:34.393Z,13.60
2022-09-26T18:17:43.695Z,10.13
2022-09-26T18:21:57.014Z,12.77
2022-09-26T18:26:06.713Z,10.60
2022-09-26T18:30:19.033Z,14.43
2022-09-26T18:34:28.355Z,13.17
2022-09-26T18:38:37.493Z,10.63
2022-09-26T18:42:47.009Z,12.13
2022-09-26T18:47:01.677Z,18.73
2022-09-26T18:51:12.546Z,11.27
2022-09-26T18:55:40.156Z,16.63
2022-09-26T18:59:49.493Z,11.17
2022-09-26T19:04:05.387Z,17.03
2022-09-26T19:08:29.433Z,12.57
2022-09-26T19:12:40.048Z,13.53
2022-09-26T19:16:50.645Z,9.33
2022-09-26T19:21:01.768Z,14.67
2022-09-26T19:25:12.507Z,14.07
2022-09-26T19:29:29.028Z,11.47
2022-09-26T19:33:41.528Z,14.27
2022-09-26T19:37:52.111Z,14.70
2022-09-26T19:42:01.986Z,9.70
2022-09-26T19:46:16.108Z,8.97
2022-09-26T19:50:27.447Z,10.07
2022-09-26T19:54:38.566Z,7.10
2022-09-26T19:58:50.947Z,10.03
2022-09-26T20:03:00.435Z,11.90
2022-09-26T20:07:13.676Z,7.63
2022-09-26T20:11:24.588Z,8.63
2022-09-26T20:15:46.166Z,12.37
2022-09-26T20:20:03.606Z,9.43
2022-09-26T20:24:19.407Z,7.37
2022-09-26T20:28:30.748Z,8.97
2022-09-26T20:32:42.794Z,7.43
2022-09-26T20:37:05.772Z,10.20
2022-09-26T20:41:26.028Z,8.00
2022-09-26T20:45:43.575Z,7.23
2022-09-26T20:50:01.586Z,8.23
2022-09-26T20:54:16.626Z,9.03
2022-09-26T20:58:26.088Z,10.03
2022-09-26T21:02:42.248Z,9.60
2022-09-26T21:06:52.809Z,8.30
2022-09-26T21:11:02.388Z,6.37
2022-09-26T21:15:14.550Z,10.73
2022-09-26T21:19:30.887Z,11.67
2022-09-26T21:23:44.809Z,10.03
2022-09-26T21:27:57.982Z,8.60
2022-09-26T21:32:09.706Z,7.80
2022-09-26T21:36:24.088Z,9.87
2022-09-26T21:40:38.911Z,10.00
2022-09-26T21:44:53.426Z,7.13
2022-09-26T21:49:02.728Z,9.13
2022-09-26T21:53:20.166Z,13.47
2022-09-26T21:57:32.386Z,10.93
2022-09-26T22:01:41.742Z,8.17
2022-09-26T22:05:50.965Z,6.93
2022-09-26T22:10:01.590Z,8.37
2022-09-26T22:14:10.748Z,10.00
2022-09-26T22:18:19.824Z,10.00
2022-09-26T22:22:29.145Z,10.20
2022-09-26T22:26:40.169Z,8.67
2022-09-26T22:30:49.331Z,11.37
2022-09-26T22:34:58.646Z,8.50
2022-09-26T22:39:08.042Z,10.93
2022-09-26T22:43:18.787Z,8.87
2022-09-26T22:47:28.004Z,7.67
2022-09-26T22:51:37.428Z,13.97
2022-09-26T22:55:55.208Z,7.30
2022-09-26T23:00:06.905Z,5.17
2022-09-26T23:04:16.150Z,6.27
2022-09-26T23:08:25.467Z,8.83
2022-09-26T23:12:34.887Z,11.93
2022-09-26T23:16:45.556Z,10.13
2022-09-26T23:20:54.687Z,11.97
2022-09-26T23:25:03.827Z,10.87
2022-09-26T23:29:13.135Z,11.90
2022-09-26T23:33:23.807Z,8.97
2022-09-26T23:37:33.011Z,11.60
2022-09-26T23:41:42.265Z,9.63
2022-09-26T23:45:51.560Z,10.73
2022-09-26T23:50:02.500Z,9.67
2022-09-26T23:54:12.667Z,11.30
2022-09-26T23:58:21.784Z,12.20
